createdAt,value
2023-03-24T00:02:37.299Z,4.5
2023-03-24T00:05:39.182Z,6.2
2023-03-24T00:08:41.153Z,5.2
2023-03-24T00:11:43.113Z,4.9
2023-03-24T00:14:45.055Z,5.2
2023-03-24T00:17:47.120Z,6.8
2023-03-24T00:20:49.012Z,4.5
2023-03-24T00:23:50.949Z,6
2023-03-24T00:26:52.972Z,6.2
2023-03-24T00:29:54.920Z,4.2
2023-03-24T00:32:56.951Z,5
2023-03-24T00:35:58.901Z,4.2
2023-03-24T00:39:00.815Z,4.3
2023-03-24T00:42:02.777Z,3.1
2023-03-24T00:45:04.727Z,4.6
2023-03-24T00:48:06.772Z,3.8
2023-03-24T00:51:08.661Z,5.8
2023-03-24T00:54:10.701Z,5.7
2023-03-24T00:57:12.699Z,4.7
2023-03-24T01:00:14.589Z,3.9
2023-03-24T01:03:16.625Z,4.7
2023-03-24T01:06:18.545Z,3.7
2023-03-24T01:09:20.513Z,6.7
2023-03-24T01:12:22.507Z,4.4
2023-03-24T01:15:24.401Z,3.3
2023-03-24T01:18:26.406Z,4.1
2023-03-24T01:21:28.344Z,4.2
2023-03-24T01:24:30.352Z,5.2
2023-03-24T01:27:32.335Z,5.1
2023-03-24T01:30:34.265Z,4.3
2023-03-24T01:33:36.289Z,4.9
2023-03-24T01:36:38.266Z,3.6
2023-03-24T01:39:40.210Z,4.1
2023-03-24T01:42:42.196Z,4.5
2023-03-24T01:45:44.177Z,4.6
2023-03-24T01:48:46.221Z,2.7
2023-03-24T01:51:48.178Z,3.4
2023-03-24T01:54:50.236Z,3.3
2023-03-24T01:57:52.170Z,3.7
2023-03-24T02:00:54.148Z,3.7
2023-03-24T02:03:56.068Z,3.6
2023-03-24T02:06:58.004Z,3.5
2023-03-24T02:10:00.026Z,2.7
2023-03-24T02:13:01.949Z,4.7
2023-03-24T02:16:03.977Z,3
2023-03-24T02:19:05.985Z,4
2023-03-24T02:22:07.833Z,4
2023-03-24T02:25:09.961Z,4.6
2023-03-24T02:28:11.770Z,4.8
2023-03-24T02:31:13.764Z,4.3
2023-03-24T02:34:15.726Z,5.1
2023-03-24T02:37:17.688Z,3.9
2023-03-24T02:40:19.661Z,3.3
2023-03-24T02:43:21.598Z,6.4
2023-03-24T02:46:23.694Z,4.8
2023-03-24T02:49:25.693Z,4.1
2023-03-24T02:52:27.589Z,6.4
2023-03-24T02:55:29.612Z,4.2
2023-03-24T02:58:31.591Z,6.7
2023-03-24T03:01:33.619Z,3.8
2023-03-24T03:04:35.592Z,4.2
2023-03-24T03:07:37.495Z,3.7
2023-03-24T03:10:39.445Z,4.1
2023-03-24T03:13:41.394Z,4.6
2023-03-24T03:16:43.510Z,3.8
2023-03-24T03:19:45.525Z,4.7
2023-03-24T03:22:47.472Z,6.5
2023-03-24T03:25:49.450Z,5.4
2023-03-24T03:28:51.411Z,4
2023-03-24T03:31:53.347Z,5.5
2023-03-24T03:34:55.353Z,4.6
2023-03-24T03:37:57.381Z,5.6
2023-03-24T03:40:59.340Z,6.8
2023-03-24T03:44:01.287Z,7
2023-03-24T03:47:03.299Z,5.6
2023-03-24T03:50:05.255Z,6.2
2023-03-24T03:53:07.194Z,5.4
2023-03-24T03:56:09.182Z,8.2
2023-03-24T03:59:11.141Z,6.6
2023-03-24T04:02:13.094Z,6.9
2023-03-24T04:05:15.051Z,6.7
2023-03-24T04:08:17.004Z,5.9
2023-03-24T04:11:18.970Z,8
2023-03-24T04:14:20.960Z,7.7
2023-03-24T04:17:22.915Z,6.5
2023-03-24T04:20:24.892Z,4.6
2023-03-24T04:23:26.887Z,5.2
2023-03-24T04:26:28.832Z,5.8
2023-03-24T04:29:30.774Z,7
2023-03-24T04:32:32.834Z,6.5
2023-03-24T04:35:34.815Z,8.2
2023-03-24T04:38:36.749Z,5.6
2023-03-24T04:41:38.707Z,6
2023-03-24T04:44:40.656Z,6.8
2023-03-24T04:47:42.716Z,7.1
2023-03-24T04:50:44.680Z,6.5
2023-03-24T04:53:46.601Z,6
2023-03-24T04:56:48.577Z,6.7
2023-03-24T04:59:50.530Z,5.8
2023-03-24T05:02:52.545Z,6.9
2023-03-24T05:05:54.448Z,6.4
2023-03-24T05:08:56.432Z,7.6
2023-03-24T05:12:00.406Z,7.3
2023-03-24T05:15:00.349Z,7.1
2023-03-24T05:18:02.347Z,5.9
2023-03-24T05:21:04.280Z,8.8
2023-03-24T05:24:06.325Z,6.2
2023-03-24T05:27:08.287Z,8
2023-03-24T05:30:10.347Z,8.7
2023-03-24T05:33:12.255Z,7
2023-03-24T05:36:14.192Z,10.9
2023-03-24T05:39:16.167Z,9.5
2023-03-24T05:42:18.093Z,8.1
2023-03-24T05:45:20.089Z,7.9
2023-03-24T05:48:22.041Z,9.1
2023-03-24T05:51:23.960Z,8
2023-03-24T05:54:25.939Z,8.9
2023-03-24T05:57:27.919Z,6.9
2023-03-24T06:00:29.893Z,8.1
2023-03-24T06:03:32.068Z,6.7
2023-03-24T06:06:33.910Z,7.2
2023-03-24T06:09:37.155Z,8.2
2023-03-24T06:12:37.822Z,6.2
2023-03-24T06:15:39.951Z,6
2023-03-24T06:18:41.762Z,6.5
2023-03-24T06:21:43.725Z,6.1
2023-03-24T06:24:45.658Z,5.2
2023-03-24T06:27:47.643Z,7
2023-03-24T06:30:49.698Z,4
2023-03-24T06:33:51.638Z,5
2023-03-24T06:36:53.501Z,3.4
2023-03-24T06:39:55.462Z,3.8
2023-03-24T06:42:57.640Z,2.8
2023-03-24T06:45:59.625Z,3.2
2023-03-24T06:49:01.509Z,3.5
2023-03-24T06:52:03.449Z,2.9
2023-03-24T06:55:05.412Z,3.7
2023-03-24T06:58:07.387Z,2.6
2023-03-24T07:01:09.331Z,3.1
2023-03-24T07:04:11.332Z,3
2023-03-24T07:10:15.306Z,3.2
2023-03-24T07:13:17.271Z,3.4
2023-03-24T07:16:19.317Z,3.6
2023-03-24T07:19:21.263Z,3.1
2023-03-24T07:22:23.182Z,4.7
2023-03-24T07:25:25.193Z,4.1
2023-03-24T07:28:27.142Z,3.7
2023-03-24T07:31:29.097Z,4.2
2023-03-24T07:34:31.036Z,4
2023-03-24T07:37:32.990Z,4.3
2023-03-24T07:40:34.992Z,5.3
2023-03-24T07:43:36.925Z,4.9
2023-03-24T07:46:38.912Z,5.1
2023-03-24T07:49:40.848Z,4.4
2023-03-24T07:52:42.827Z,5
2023-03-24T07:55:44.818Z,4.1
2023-03-24T07:58:46.766Z,4.7
2023-03-24T08:01:49.658Z,5.4
2023-03-24T08:04:50.689Z,5
2023-03-24T08:07:52.638Z,4.9
2023-03-24T08:10:54.595Z,5.7
2023-03-24T08:13:56.584Z,7.7
2023-03-24T08:16:58.569Z,6.1
2023-03-24T08:20:02.119Z,5.5
2023-03-24T08:23:02.548Z,6
2023-03-24T08:26:04.461Z,6.5
2023-03-24T08:29:06.522Z,5.6
2023-03-24T08:32:08.426Z,5.1
2023-03-24T08:35:10.520Z,4.6
2023-03-24T08:38:12.371Z,6
2023-03-24T08:41:14.317Z,6.5
2023-03-24T08:44:16.291Z,3.1
2023-03-24T08:47:18.288Z,5
2023-03-24T08:50:20.227Z,4.3
2023-03-24T08:53:22.188Z,4.8
2023-03-24T08:56:24.148Z,5.7
2023-03-24T08:59:26.106Z,5.8
2023-03-24T09:02:28.121Z,4.5
2023-03-24T09:05:43.819Z,3.3
2023-03-24T09:08:31.988Z,3.4
2023-03-24T09:11:38.568Z,4.6
2023-03-24T09:14:38.766Z,2.8
2023-03-24T09:17:40.809Z,3.3
2023-03-24T09:20:42.703Z,3.3
2023-03-24T09:23:44.900Z,2.7
2023-03-24T09:26:46.804Z,3.7
2023-03-24T09:29:48.822Z,1.6
2023-03-24T09:32:50.820Z,2.3
2023-03-24T09:35:52.947Z,2.4
2023-03-24T09:38:54.914Z,2.2
2023-03-24T09:41:56.939Z,1.3
2023-03-24T09:44:58.968Z,1.3
2023-03-24T09:48:01.054Z,0.9
2023-03-24T09:51:03.045Z,1.3
2023-03-24T09:54:05.036Z,1.6
2023-03-24T09:57:07.230Z,1.7
2023-03-24T10:00:09.114Z,4.2
2023-03-24T10:03:11.264Z,1.3
2023-03-24T10:06:15.515Z,2.3
2023-03-24T10:09:15.416Z,2.5
2023-03-24T10:12:17.544Z,2.3
2023-03-24T10:15:30.783Z,2.4
2023-03-24T10:18:21.733Z,2.7
2023-03-24T10:21:23.870Z,2.4
2023-03-24T10:24:25.795Z,2.3
2023-03-24T10:27:27.776Z,3.2
2023-03-24T10:30:29.735Z,1.5
2023-03-24T10:33:31.868Z,1.8
2023-03-24T10:36:33.882Z,2.7
2023-03-24T10:42:37.849Z,2.8
2023-03-24T10:45:39.870Z,2.3
2023-03-24T10:48:41.805Z,1.9
2023-03-24T10:51:43.968Z,3.2
2023-03-24T10:54:46.051Z,2.8
2023-03-24T10:57:48.229Z,6
2023-03-24T11:00:50.260Z,3
2023-03-24T11:03:52.116Z,3.4
2023-03-24T11:06:54.091Z,2.1
2023-03-24T11:09:56.075Z,3.1
2023-03-24T11:12:58.050Z,2.8
2023-03-24T11:16:00.011Z,2.7
2023-03-24T11:19:02.027Z,4.2
2023-03-24T11:22:03.972Z,3.1
2023-03-24T11:25:05.938Z,2.3
2023-03-24T11:28:07.957Z,2.3
2023-03-24T11:31:09.936Z,2.5
2023-03-24T11:34:12.032Z,1.8
2023-03-24T11:37:17.016Z,2.7
2023-03-24T11:40:19.301Z,4.6
2023-03-24T11:43:20.998Z,3
2023-03-24T11:46:23.091Z,3
2023-03-24T11:49:24.980Z,2.5
2023-03-24T11:52:27.040Z,3.3
2023-03-24T11:55:29.093Z,2.7
2023-03-24T11:58:31.005Z,1.3
2023-03-24T12:01:32.986Z,3.3
2023-03-24T12:04:34.991Z,2.6
2023-03-24T12:07:37.092Z,2.7
2023-03-24T12:10:39.029Z,1.9
2023-03-24T12:13:40.955Z,2.1
2023-03-24T12:16:42.976Z,2.4
2023-03-24T12:19:56.329Z,3.3
2023-03-24T12:22:45.908Z,3.3
2023-03-24T12:25:48.072Z,3
2023-03-24T12:28:49.817Z,4
2023-03-24T12:31:51.835Z,3.4
2023-03-24T12:34:53.826Z,4.6
2023-03-24T12:37:55.834Z,3.1
2023-03-24T12:40:57.858Z,2.1
2023-03-24T12:43:59.892Z,2.9
2023-03-24T12:47:01.875Z,2.9
2023-03-24T12:50:03.838Z,3.2
2023-03-24T12:53:08.006Z,3.3
2023-03-24T12:56:07.785Z,4.6
2023-03-24T12:59:09.770Z,4.2
2023-03-24T13:02:11.811Z,2.8
2023-03-24T13:05:15.602Z,1.9
2023-03-24T13:08:15.812Z,5
2023-03-24T13:11:30.289Z,2
2023-03-24T13:14:19.869Z,5.1
2023-03-24T13:17:21.841Z,2.9
2023-03-24T13:20:23.866Z,4.7
2023-03-24T13:23:25.813Z,2.5
2023-03-24T13:26:27.764Z,4.8
2023-03-24T13:29:38.645Z,5.8
2023-03-24T13:32:31.846Z,3.2
2023-03-24T13:35:33.866Z,3.2
2023-03-24T13:38:35.780Z,4
2023-03-24T13:41:37.744Z,3.7
2023-03-24T13:44:39.904Z,3.7
2023-03-24T13:47:41.706Z,4.1
2023-03-24T13:50:43.839Z,4.9
2023-03-24T13:53:45.798Z,4.2
2023-03-24T13:56:47.794Z,3.2
2023-03-24T13:59:49.711Z,2.4
2023-03-24T14:02:51.770Z,4.5
2023-03-24T14:05:54.432Z,4.1
2023-03-24T14:08:56.485Z,3.1
2023-03-24T14:11:58.537Z,4
2023-03-24T14:15:00.621Z,2.7
2023-03-24T14:18:02.601Z,4.9
2023-03-24T14:21:04.547Z,3.6
2023-03-24T14:24:06.835Z,1.9
2023-03-24T14:27:08.811Z,1.7
2023-03-24T14:30:11.099Z,4.7
2023-03-24T14:33:12.885Z,2.3
2023-03-24T14:36:15.028Z,1.9
2023-03-24T14:39:17.059Z,2
2023-03-24T14:42:19.120Z,2.2
2023-03-24T14:45:21.109Z,2.3
2023-03-24T14:48:23.046Z,3.8
2023-03-24T14:51:25.038Z,3.7
2023-03-24T14:54:27.019Z,5
2023-03-24T14:57:28.982Z,4.9
2023-03-24T15:00:30.978Z,3.2
2023-03-24T15:03:32.988Z,2.3
2023-03-24T15:06:34.953Z,3.4
2023-03-24T15:09:39.276Z,2
2023-03-24T15:12:38.913Z,3.9
2023-03-24T15:15:41.044Z,4.4
2023-03-24T15:18:50.111Z,3.7
2023-03-24T15:21:45.008Z,3.6
2023-03-24T15:24:46.923Z,3.4
2023-03-24T15:27:48.882Z,3.4
2023-03-24T15:30:51.098Z,4.5
2023-03-24T15:33:52.820Z,2.3
2023-03-24T15:36:54.877Z,3
2023-03-24T15:40:02.093Z,3.3
2023-03-24T15:42:58.796Z,2.8
2023-03-24T15:46:09.375Z,2.3
2023-03-24T15:49:02.719Z,3.9
2023-03-24T15:52:04.681Z,4.5
2023-03-24T15:55:06.661Z,2.7
2023-03-24T15:58:08.645Z,3.2
2023-03-24T16:01:10.660Z,2.8
2023-03-24T16:04:12.676Z,3.7
2023-03-24T16:07:14.896Z,2.9
2023-03-24T16:10:16.778Z,2.5
2023-03-24T16:13:18.757Z,1.4
2023-03-24T16:16:20.705Z,3.3
2023-03-24T16:19:22.668Z,2.4
2023-03-24T16:22:24.640Z,3.2
2023-03-24T16:25:26.605Z,4.6
2023-03-24T16:28:28.607Z,2.5
2023-03-24T16:31:30.540Z,1.6
2023-03-24T16:34:32.471Z,3.6
2023-03-24T16:37:34.445Z,1.8
2023-03-24T16:40:36.397Z,3.5
2023-03-24T16:43:38.394Z,2.3
2023-03-24T16:46:40.378Z,2.6
2023-03-24T16:49:42.317Z,4.2
2023-03-24T16:52:44.279Z,6.8
2023-03-24T16:55:46.257Z,2.6
2023-03-24T16:58:49.825Z,2.7
2023-03-24T17:01:50.264Z,4.2
2023-03-24T17:04:52.309Z,4.4
2023-03-24T17:07:54.338Z,3.4
2023-03-24T17:10:56.447Z,3.2
2023-03-24T17:13:58.521Z,3
2023-03-24T17:17:00.549Z,3
2023-03-24T17:20:04.724Z,3.9
2023-03-24T17:23:04.599Z,2.2
2023-03-24T17:26:06.687Z,3.5
2023-03-24T17:29:08.721Z,3.3
2023-03-24T17:32:10.631Z,4.3
2023-03-24T17:35:12.636Z,3.3
2023-03-24T17:38:14.634Z,2.5
2023-03-24T17:41:16.620Z,3.6
2023-03-24T17:44:18.595Z,4.8
2023-03-24T17:47:20.581Z,4.5
2023-03-24T17:50:22.579Z,5.7
2023-03-24T17:53:24.537Z,3.8
2023-03-24T17:56:26.654Z,2.6
2023-03-24T17:59:28.485Z,2.6
2023-03-24T18:02:30.441Z,2.5
2023-03-24T18:05:32.428Z,2.5
2023-03-24T18:08:34.374Z,3.4
2023-03-24T18:11:36.321Z,4
2023-03-24T18:14:38.289Z,4.4
2023-03-24T18:17:40.271Z,4.8
2023-03-24T18:20:42.187Z,3.3
2023-03-24T18:23:44.158Z,2.8
2023-03-24T18:26:46.400Z,2.7
2023-03-24T18:29:48.149Z,3.3
2023-03-24T18:32:50.148Z,5.1
2023-03-24T18:35:52.083Z,4.1
2023-03-24T18:38:53.985Z,3.3
2023-03-24T18:41:56.197Z,4.7
2023-03-24T18:44:57.921Z,5.4
2023-03-24T18:47:59.996Z,6.4
2023-03-24T18:51:01.849Z,5.2
2023-03-24T18:54:03.820Z,5.2
2023-03-24T18:57:05.836Z,3.5
2023-03-24T19:00:07.749Z,4.5
2023-03-24T19:03:09.818Z,4.8
2023-03-24T19:06:11.660Z,6.2
2023-03-24T19:09:13.653Z,2.5
2023-03-24T19:12:15.591Z,3.1
2023-03-24T19:15:17.561Z,5.9
2023-03-24T19:18:19.599Z,3.9
2023-03-24T19:21:21.528Z,5
2023-03-24T19:24:23.501Z,2.4
2023-03-24T19:27:25.439Z,5.5
2023-03-24T19:30:27.434Z,3.7
2023-03-24T19:33:29.426Z,3.5
2023-03-24T19:36:31.379Z,5.1
2023-03-24T19:39:33.366Z,4.9
2023-03-24T19:42:35.268Z,3.7
2023-03-24T19:45:37.271Z,7.1
2023-03-24T19:48:39.266Z,4.2
2023-03-24T19:51:41.170Z,2.6
2023-03-24T19:54:43.150Z,5.5
2023-03-24T19:57:45.083Z,4
2023-03-24T20:00:47.133Z,5.3
2023-03-24T20:03:49.083Z,1.7
2023-03-24T20:06:51.041Z,4
2023-03-24T20:09:52.989Z,3.9
2023-03-24T20:12:54.995Z,3.3
2023-03-24T20:15:56.976Z,3
2023-03-24T20:18:58.948Z,4.1
2023-03-24T20:22:00.920Z,2.6
2023-03-24T20:25:02.895Z,2.5
2023-03-24T20:28:04.841Z,2.8
2023-03-24T20:31:06.850Z,3.1
2023-03-24T20:34:08.774Z,3.9
2023-03-24T20:37:10.764Z,4
2023-03-24T20:40:12.760Z,4.6
2023-03-24T20:43:14.741Z,3.5
2023-03-24T20:46:16.746Z,3.2
2023-03-24T20:49:18.736Z,4.2
2023-03-24T20:52:20.720Z,1.9
2023-03-24T20:55:22.667Z,2.2
2023-03-24T20:58:24.639Z,3.8
2023-03-24T21:01:26.616Z,4.7
2023-03-24T21:04:28.548Z,2.4
2023-03-24T21:07:30.547Z,3.4
2023-03-24T21:10:32.484Z,3.6
2023-03-24T21:13:37.791Z,1.3
2023-03-24T21:16:36.424Z,3.9
2023-03-24T21:19:38.379Z,2.8
2023-03-24T21:22:40.318Z,3.3
2023-03-24T21:25:42.283Z,2.2
2023-03-24T21:28:44.320Z,2.5
2023-03-24T21:31:46.253Z,3.6
2023-03-24T21:34:48.182Z,4
2023-03-24T21:37:50.181Z,1.8
2023-03-24T21:40:52.285Z,4.7
2023-03-24T21:43:54.329Z,3.4
2023-03-24T21:46:56.084Z,1.9
2023-03-24T21:49:58.056Z,2.1
2023-03-24T21:53:00.021Z,4.2
2023-03-24T21:56:02.010Z,2.5
2023-03-24T21:59:03.971Z,3.4
2023-03-24T22:02:05.991Z,0.9
2023-03-24T22:05:07.907Z,2
2023-03-24T22:08:09.945Z,1.4
2023-03-24T22:11:11.872Z,2.5
2023-03-24T22:14:13.832Z,1.8
2023-03-24T22:17:15.859Z,3
2023-03-24T22:20:17.761Z,2.5
2023-03-24T22:23:19.732Z,1.7
2023-03-24T22:26:21.677Z,1.6
2023-03-24T22:29:23.661Z,1.2
2023-03-24T22:32:25.661Z,1.9
2023-03-24T22:35:27.597Z,1.4
2023-03-24T22:38:29.573Z,1.1
2023-03-24T22:41:31.561Z,1.2
2023-03-24T22:44:33.520Z,1.2
2023-03-24T22:47:35.510Z,1.4
2023-03-24T22:50:37.408Z,0.8
2023-03-24T22:53:39.389Z,2
2023-03-24T22:56:41.403Z,0.6
2023-03-24T22:59:43.331Z,1.1
2023-03-24T23:02:45.380Z,1.4
2023-03-24T23:05:47.408Z,1.7
2023-03-24T23:08:49.529Z,2.6
2023-03-24T23:11:51.253Z,2.3
2023-03-24T23:14:53.187Z,1.5
2023-03-24T23:17:55.175Z,0.8
2023-03-24T23:20:57.114Z,0.4
2023-03-24T23:23:59.047Z,1.6
2023-03-24T23:27:01.010Z,2
2023-03-24T23:30:03.048Z,1.1
2023-03-24T23:33:05.071Z,1
2023-03-24T23:36:06.919Z,1.8
2023-03-24T23:39:08.917Z,1.6
2023-03-24T23:42:10.879Z,0.8
2023-03-24T23:45:12.960Z,1.3
2023-03-24T23:48:14.802Z,1
2023-03-24T23:51:16.750Z,0.9
2023-03-24T23:54:18.754Z,0.8
2023-03-24T23:57:20.675Z,1.4
